sensor_id;sensor_type;location;lat;lon;timestamp;temperature;humidity
6106;DHT22;3083;51.508;7.966;2022-09-09T00:00:27;16.30;99.90
6106;DHT22;3083;51.508;7.966;2022-09-09T00:03:02;16.30;99.90
6106;DHT22;3083;51.508;7.966;2022-09-09T00:05:36;16.30;99.90
6106;DHT22;3083;51.508;7.966;2022-09-09T00:08:14;16.30;99.90
6106;DHT22;3083;51.508;7.966;2022-09-09T00:10:47;16.30;99.90
6106;DHT22;3083;51.508;7.966;2022-09-09T00:13:22;16.30;99.90
6106;DHT22;3083;51.508;7.966;2022-09-09T00:15:57;16.30;99.90
6106;DHT22;3083;51.508;7.966;2022-09-09T00:18:28;16.30;99.90
6106;DHT22;3083;51.508;7.966;2022-09-09T00:21:01;16.30;99.90
6106;DHT22;3083;51.508;7.966;2022-09-09T00:23:34;16.30;99.90
6106;DHT22;3083;51.508;7.966;2022-09-09T00:26:06;16.40;99.90
6106;DHT22;3083;51.508;7.966;2022-09-09T00:28:39;16.40;99.90
6106;DHT22;3083;51.508;7.966;2022-09-09T00:31:12;16.40;99.90
6106;DHT22;3083;51.508;7.966;2022-09-09T00:33:40;16.40;99.90
6106;DHT22;3083;51.508;7.966;2022-09-09T00:36:12;16.40;99.90
6106;DHT22;3083;51.508;7.966;2022-09-09T00:38:45;16.50;99.90
6106;DHT22;3083;51.508;7.966;2022-09-09T00:41:19;16.50;99.90
6106;DHT22;3083;51.508;7.966;2022-09-09T00:43:55;16.40;99.90
6106;DHT22;3083;51.508;7.966;2022-09-09T00:46:50;16.40;99.90
6106;DHT22;3083;51.508;7.966;2022-09-09T00:49:30;16.40;99.90
6106;DHT22;3083;51.508;7.966;2022-09-09T00:52:12;16.40;99.90
6106;DHT22;3083;51.508;7.966;2022-09-09T00:54:51;16.30;99.90
6106;DHT22;3083;51.508;7.966;2022-09-09T00:57:26;16.20;99.90
6106;DHT22;3083;51.508;7.966;2022-09-09T00:59:59;16.20;99.90
6106;DHT22;3083;51.508;7.966;2022-09-09T01:02:35;16.10;99.90
6106;DHT22;3083;51.508;7.966;2022-09-09T01:05:09;16.10;99.90
6106;DHT22;3083;51.508;7.966;2022-09-09T01:07:40;16.10;99.90
6106;DHT22;3083;51.508;7.966;2022-09-09T01:10:17;16.00;99.90
6106;DHT22;3083;51.508;7.966;2022-09-09T01:12:51;16.00;99.90
6106;DHT22;3083;51.508;7.966;2022-09-09T01:15:22;16.00;99.90
6106;DHT22;3083;51.508;7.966;2022-09-09T01:17:55;16.10;99.90
6106;DHT22;3083;51.508;7.966;2022-09-09T01:20:27;16.10;99.90
6106;DHT22;3083;51.508;7.966;2022-09-09T01:23:10;16.10;99.90
6106;DHT22;3083;51.508;7.966;2022-09-09T01:26:09;16.10;99.90
6106;DHT22;3083;51.508;7.966;2022-09-09T01:28:39;16.10;99.90
6106;DHT22;3083;51.508;7.966;2022-09-09T01:31:09;16.00;99.90
6106;DHT22;3083;51.508;7.966;2022-09-09T01:33:37;16.00;99.90
6106;DHT22;3083;51.508;7.966;2022-09-09T01:36:07;15.90;99.90
6106;DHT22;3083;51.508;7.966;2022-09-09T01:38:36;15.90;99.90
6106;DHT22;3083;51.508;7.966;2022-09-09T01:41:03;15.90;99.90
6106;DHT22;3083;51.508;7.966;2022-09-09T01:43:31;15.80;99.90
6106;DHT22;3083;51.508;7.966;2022-09-09T01:46:00;15.70;99.90
6106;DHT22;3083;51.508;7.966;2022-09-09T01:48:28;15.70;99.90
6106;DHT22;3083;51.508;7.966;2022-09-09T01:50:55;15.70;99.90
6106;DHT22;3083;51.508;7.966;2022-09-09T01:53:22;15.60;99.90
6106;DHT22;3083;51.508;7.966;2022-09-09T01:55:58;15.60;99.90
6106;DHT22;3083;51.508;7.966;2022-09-09T01:58:34;15.60;99.90
6106;DHT22;3083;51.508;7.966;2022-09-09T02:01:12;15.60;99.90
6106;DHT22;3083;51.508;7.966;2022-09-09T02:03:44;15.60;99.90
6106;DHT22;3083;51.508;7.966;2022-09-09T02:06:20;15.50;99.90
6106;DHT22;3083;51.508;7.966;2022-09-09T02:08:52;15.50;99.90
6106;DHT22;3083;51.508;7.966;2022-09-09T02:11:24;15.50;99.90
6106;DHT22;3083;51.508;7.966;2022-09-09T02:13:56;15.40;99.90
6106;DHT22;3083;51.508;7.966;2022-09-09T02:16:26;15.40;99.90
6106;DHT22;3083;51.508;7.966;2022-09-09T02:18:57;15.40;99.90
6106;DHT22;3083;51.508;7.966;2022-09-09T02:21:29;15.40;99.90
6106;DHT22;3083;51.508;7.966;2022-09-09T02:23:59;15.40;99.90
6106;DHT22;3083;51.508;7.966;2022-09-09T02:26:31;15.40;99.90
6106;DHT22;3083;51.508;7.966;2022-09-09T02:29:02;15.30;99.90
6106;DHT22;3083;51.508;7.966;2022-09-09T02:31:31;15.40;99.90
6106;DHT22;3083;51.508;7.966;2022-09-09T02:34:00;15.40;99.90
6106;DHT22;3083;51.508;7.966;2022-09-09T02:36:31;15.40;99.90
6106;DHT22;3083;51.508;7.966;2022-09-09T02:39:00;15.40;99.90
6106;DHT22;3083;51.508;7.966;2022-09-09T02:41:31;15.50;99.90
6106;DHT22;3083;51.508;7.966;2022-09-09T02:44:01;15.50;99.90
6106;DHT22;3083;51.508;7.966;2022-09-09T02:46:39;15.60;99.90
6106;DHT22;3083;51.508;7.966;2022-09-09T02:49:09;15.60;99.90
6106;DHT22;3083;51.508;7.966;2022-09-09T02:51:44;15.70;99.90
6106;DHT22;3083;51.508;7.966;2022-09-09T02:54:20;15.70;99.90
6106;DHT22;3083;51.508;7.966;2022-09-09T02:56:53;15.80;99.90
6106;DHT22;3083;51.508;7.966;2022-09-09T02:59:25;15.80;99.90
6106;DHT22;3083;51.508;7.966;2022-09-09T03:01:52;15.80;99.90
6106;DHT22;3083;51.508;7.966;2022-09-09T03:04:19;15.80;99.90
6106;DHT22;3083;51.508;7.966;2022-09-09T03:06:46;15.80;99.90
6106;DHT22;3083;51.508;7.966;2022-09-09T03:09:13;15.80;99.90
6106;DHT22;3083;51.508;7.966;2022-09-09T03:11:40;15.80;99.90
6106;DHT22;3083;51.508;7.966;2022-09-09T03:14:07;15.80;99.90
6106;DHT22;3083;51.508;7.966;2022-09-09T03:16:37;15.80;99.90
6106;DHT22;3083;51.508;7.966;2022-09-09T03:19:04;15.80;99.90
6106;DHT22;3083;51.508;7.966;2022-09-09T03:21:31;15.80;99.90
6106;DHT22;3083;51.508;7.966;2022-09-09T03:23:59;15.80;99.90
6106;DHT22;3083;51.508;7.966;2022-09-09T03:26:28;15.70;99.90
6106;DHT22;3083;51.508;7.966;2022-09-09T03:28:55;15.70;99.90
6106;DHT22;3083;51.508;7.966;2022-09-09T03:31:22;15.70;99.90
6106;DHT22;3083;51.508;7.966;2022-09-09T03:33:51;15.70;99.90
6106;DHT22;3083;51.508;7.966;2022-09-09T03:36:17;15.70;99.90
6106;DHT22;3083;51.508;7.966;2022-09-09T03:38:44;15.70;99.90
6106;DHT22;3083;51.508;7.966;2022-09-09T03:41:11;15.70;99.90
6106;DHT22;3083;51.508;7.966;2022-09-09T03:43:38;15.70;99.90
6106;DHT22;3083;51.508;7.966;2022-09-09T03:46:05;15.70;99.90
6106;DHT22;3083;51.508;7.966;2022-09-09T03:48:32;15.70;99.90
6106;DHT22;3083;51.508;7.966;2022-09-09T03:51:00;15.70;99.90
6106;DHT22;3083;51.508;7.966;2022-09-09T03:53:29;15.70;99.90
6106;DHT22;3083;51.508;7.966;2022-09-09T03:55:57;15.70;99.90
6106;DHT22;3083;51.508;7.966;2022-09-09T03:58:25;15.70;99.90
6106;DHT22;3083;51.508;7.966;2022-09-09T04:00:54;15.70;99.90
6106;DHT22;3083;51.508;7.966;2022-09-09T04:03:21;15.80;99.90
6106;DHT22;3083;51.508;7.966;2022-09-09T04:05:50;15.80;99.90
6106;DHT22;3083;51.508;7.966;2022-09-09T04:08:19;15.80;99.90
6106;DHT22;3083;51.508;7.966;2022-09-09T04:10:46;15.80;99.90
6106;DHT22;3083;51.508;7.966;2022-09-09T04:13:14;15.80;99.90
6106;DHT22;3083;51.508;7.966;2022-09-09T04:15:44;15.80;99.90
6106;DHT22;3083;51.508;7.966;2022-09-09T04:18:11;15.70;99.90
6106;DHT22;3083;51.508;7.966;2022-09-09T04:20:38;15.80;99.90
6106;DHT22;3083;51.508;7.966;2022-09-09T04:23:05;15.70;99.90
6106;DHT22;3083;51.508;7.966;2022-09-09T04:25:33;15.70;99.90
6106;DHT22;3083;51.508;7.966;2022-09-09T04:28:00;15.70;99.90
6106;DHT22;3083;51.508;7.966;2022-09-09T04:30:28;15.70;99.90
6106;DHT22;3083;51.508;7.966;2022-09-09T04:32:56;15.70;99.90
6106;DHT22;3083;51.508;7.966;2022-09-09T04:35:23;15.70;99.90
6106;DHT22;3083;51.508;7.966;2022-09-09T04:37:50;15.70;99.90
6106;DHT22;3083;51.508;7.966;2022-09-09T04:40:17;15.70;99.90
6106;DHT22;3083;51.508;7.966;2022-09-09T04:42:45;15.70;99.90
6106;DHT22;3083;51.508;7.966;2022-09-09T04:45:13;15.60;99.90
6106;DHT22;3083;51.508;7.966;2022-09-09T04:47:40;15.60;99.90
6106;DHT22;3083;51.508;7.966;2022-09-09T04:50:08;15.60;99.90
6106;DHT22;3083;51.508;7.966;2022-09-09T04:52:36;15.50;99.90
6106;DHT22;3083;51.508;7.966;2022-09-09T04:55:03;15.50;99.90
6106;DHT22;3083;51.508;7.966;2022-09-09T04:57:30;15.50;99.90
6106;DHT22;3083;51.508;7.966;2022-09-09T05:00:00;15.50;99.90
6106;DHT22;3083;51.508;7.966;2022-09-09T05:02:27;15.50;99.90
6106;DHT22;3083;51.508;7.966;2022-09-09T05:04:54;15.60;99.90
6106;DHT22;3083;51.508;7.966;2022-09-09T05:07:21;15.60;99.90
6106;DHT22;3083;51.508;7.966;2022-09-09T05:09:48;15.60;99.90
6106;DHT22;3083;51.508;7.966;2022-09-09T05:12:15;15.60;99.90
6106;DHT22;3083;51.508;7.966;2022-09-09T05:14:43;15.60;99.90
6106;DHT22;3083;51.508;7.966;2022-09-09T05:17:11;15.60;99.90
6106;DHT22;3083;51.508;7.966;2022-09-09T05:19:38;15.70;99.90
6106;DHT22;3083;51.508;7.966;2022-09-09T05:22:05;15.70;99.90
6106;DHT22;3083;51.508;7.966;2022-09-09T05:24:33;15.70;99.90
6106;DHT22;3083;51.508;7.966;2022-09-09T05:26:59;15.80;99.90
6106;DHT22;3083;51.508;7.966;2022-09-09T05:29:28;15.80;99.90
6106;DHT22;3083;51.508;7.966;2022-09-09T05:31:54;15.90;99.90
6106;DHT22;3083;51.508;7.966;2022-09-09T05:34:23;16.00;99.90
6106;DHT22;3083;51.508;7.966;2022-09-09T05:36:50;16.10;99.90
6106;DHT22;3083;51.508;7.966;2022-09-09T05:39:17;16.20;99.90
6106;DHT22;3083;51.508;7.966;2022-09-09T05:41:44;16.30;99.90
6106;DHT22;3083;51.508;7.966;2022-09-09T05:44:11;16.30;99.90
6106;DHT22;3083;51.508;7.966;2022-09-09T05:46:39;16.40;99.90
6106;DHT22;3083;51.508;7.966;2022-09-09T05:49:06;16.40;99.90
6106;DHT22;3083;51.508;7.966;2022-09-09T05:51:35;16.40;99.90
6106;DHT22;3083;51.508;7.966;2022-09-09T05:54:02;16.40;99.90
6106;DHT22;3083;51.508;7.966;2022-09-09T05:56:29;16.50;99.90
6106;DHT22;3083;51.508;7.966;2022-09-09T05:58:58;16.50;99.90
6106;DHT22;3083;51.508;7.966;2022-09-09T06:01:29;16.50;99.90
6106;DHT22;3083;51.508;7.966;2022-09-09T06:03:57;16.50;99.90
6106;DHT22;3083;51.508;7.966;2022-09-09T06:06:25;16.50;99.90
6106;DHT22;3083;51.508;7.966;2022-09-09T06:08:55;16.50;99.90
6106;DHT22;3083;51.508;7.966;2022-09-09T06:11:24;16.50;99.90
6106;DHT22;3083;51.508;7.966;2022-09-09T06:13:52;16.50;99.90
6106;DHT22;3083;51.508;7.966;2022-09-09T06:16:21;16.50;99.90
6106;DHT22;3083;51.508;7.966;2022-09-09T06:18:49;16.50;99.90
6106;DHT22;3083;51.508;7.966;2022-09-09T06:21:18;16.50;99.90
6106;DHT22;3083;51.508;7.966;2022-09-09T06:23:46;16.50;99.90
6106;DHT22;3083;51.508;7.966;2022-09-09T06:26:16;16.40;99.90
6106;DHT22;3083;51.508;7.966;2022-09-09T06:28:45;16.50;99.90
6106;DHT22;3083;51.508;7.966;2022-09-09T06:31:14;16.50;99.90
6106;DHT22;3083;51.508;7.966;2022-09-09T06:33:43;16.50;99.90
6106;DHT22;3083;51.508;7.966;2022-09-09T06:36:13;16.50;99.90
6106;DHT22;3083;51.508;7.966;2022-09-09T06:38:40;16.50;99.90
6106;DHT22;3083;51.508;7.966;2022-09-09T06:41:08;16.60;99.90
6106;DHT22;3083;51.508;7.966;2022-09-09T06:43:37;16.60;99.90
6106;DHT22;3083;51.508;7.966;2022-09-09T06:46:08;16.70;99.90
6106;DHT22;3083;51.508;7.966;2022-09-09T06:48:35;16.70;99.90
6106;DHT22;3083;51.508;7.966;2022-09-09T06:51:03;16.80;99.90
6106;DHT22;3083;51.508;7.966;2022-09-09T06:53:31;16.80;99.90
6106;DHT22;3083;51.508;7.966;2022-09-09T06:55:59;16.90;99.90
6106;DHT22;3083;51.508;7.966;2022-09-09T06:58:27;16.90;99.90
6106;DHT22;3083;51.508;7.966;2022-09-09T07:01:03;16.90;99.90
6106;DHT22;3083;51.508;7.966;2022-09-09T07:03:30;16.90;99.90
6106;DHT22;3083;51.508;7.966;2022-09-09T07:05:57;16.90;99.90
6106;DHT22;3083;51.508;7.966;2022-09-09T07:08:25;16.90;99.90
6106;DHT22;3083;51.508;7.966;2022-09-09T07:10:52;16.90;99.90
6106;DHT22;3083;51.508;7.966;2022-09-09T07:13:23;16.90;99.90
6106;DHT22;3083;51.508;7.966;2022-09-09T07:15:51;17.00;99.90
6106;DHT22;3083;51.508;7.966;2022-09-09T07:18:19;17.00;99.90
6106;DHT22;3083;51.508;7.966;2022-09-09T07:20:53;17.00;99.90
6106;DHT22;3083;51.508;7.966;2022-09-09T07:23:20;17.00;99.90
6106;DHT22;3083;51.508;7.966;2022-09-09T07:25:46;17.00;99.90
6106;DHT22;3083;51.508;7.966;2022-09-09T07:28:14;17.00;99.90
6106;DHT22;3083;51.508;7.966;2022-09-09T07:30:40;17.10;99.90
6106;DHT22;3083;51.508;7.966;2022-09-09T07:33:08;17.20;99.90
6106;DHT22;3083;51.508;7.966;2022-09-09T07:35:37;17.30;99.90
6106;DHT22;3083;51.508;7.966;2022-09-09T07:38:04;17.40;99.90
6106;DHT22;3083;51.508;7.966;2022-09-09T07:40:32;17.60;99.90
6106;DHT22;3083;51.508;7.966;2022-09-09T07:42:59;17.60;99.90
6106;DHT22;3083;51.508;7.966;2022-09-09T07:45:26;17.60;99.90
6106;DHT22;3083;51.508;7.966;2022-09-09T07:47:53;17.50;99.90
6106;DHT22;3083;51.508;7.966;2022-09-09T07:50:22;17.40;99.90
6106;DHT22;3083;51.508;7.966;2022-09-09T07:52:51;17.30;99.90
6106;DHT22;3083;51.508;7.966;2022-09-09T07:55:19;17.30;99.90
6106;DHT22;3083;51.508;7.966;2022-09-09T07:57:46;17.30;99.90
6106;DHT22;3083;51.508;7.966;2022-09-09T08:00:14;17.30;99.90
6106;DHT22;3083;51.508;7.966;2022-09-09T08:02:41;17.60;99.90
6106;DHT22;3083;51.508;7.966;2022-09-09T08:05:08;17.90;99.90
6106;DHT22;3083;51.508;7.966;2022-09-09T08:07:35;18.30;99.90
6106;DHT22;3083;51.508;7.966;2022-09-09T08:10:04;18.60;99.90
6106;DHT22;3083;51.508;7.966;2022-09-09T08:12:31;18.60;99.90
6106;DHT22;3083;51.508;7.966;2022-09-09T08:14:58;18.70;99.90
6106;DHT22;3083;51.508;7.966;2022-09-09T08:17:25;18.70;99.90
6106;DHT22;3083;51.508;7.966;2022-09-09T08:19:52;18.60;99.90
6106;DHT22;3083;51.508;7.966;2022-09-09T08:22:19;18.60;99.90
6106;DHT22;3083;51.508;7.966;2022-09-09T08:24:47;18.60;99.90
6106;DHT22;3083;51.508;7.966;2022-09-09T08:27:15;18.60;99.90
6106;DHT22;3083;51.508;7.966;2022-09-09T08:29:42;18.60;99.90
6106;DHT22;3083;51.508;7.966;2022-09-09T08:32:10;18.60;99.90
6106;DHT22;3083;51.508;7.966;2022-09-09T08:34:36;18.60;99.90
6106;DHT22;3083;51.508;7.966;2022-09-09T08:37:03;18.70;99.90
6106;DHT22;3083;51.508;7.966;2022-09-09T08:39:30;18.80;99.90
6106;DHT22;3083;51.508;7.966;2022-09-09T08:42:19;18.70;99.90
6106;DHT22;3083;51.508;7.966;2022-09-09T08:45:02;18.70;99.90
6106;DHT22;3083;51.508;7.966;2022-09-09T08:47:42;18.80;99.90
6106;DHT22;3083;51.508;7.966;2022-09-09T08:50:19;18.90;99.90
6106;DHT22;3083;51.508;7.966;2022-09-09T08:52:54;19.10;99.90
6106;DHT22;3083;51.508;7.966;2022-09-09T08:55:27;19.20;99.90
6106;DHT22;3083;51.508;7.966;2022-09-09T08:57:59;19.40;99.90
6106;DHT22;3083;51.508;7.966;2022-09-09T09:00:35;19.40;99.90
6106;DHT22;3083;51.508;7.966;2022-09-09T09:03:09;19.50;99.90
6106;DHT22;3083;51.508;7.966;2022-09-09T09:05:46;19.50;99.90
6106;DHT22;3083;51.508;7.966;2022-09-09T09:08:20;19.50;99.90
6106;DHT22;3083;51.508;7.966;2022-09-09T09:10:54;19.70;99.90
6106;DHT22;3083;51.508;7.966;2022-09-09T09:13:33;20.10;99.90
6106;DHT22;3083;51.508;7.966;2022-09-09T09:16:09;20.60;99.90
6106;DHT22;3083;51.508;7.966;2022-09-09T09:18:39;20.90;99.90
6106;DHT22;3083;51.508;7.966;2022-09-09T09:21:12;21.10;99.90
6106;DHT22;3083;51.508;7.966;2022-09-09T09:23:45;21.20;99.90
6106;DHT22;3083;51.508;7.966;2022-09-09T09:26:15;21.30;99.90
6106;DHT22;3083;51.508;7.966;2022-09-09T09:28:43;21.40;99.90
6106;DHT22;3083;51.508;7.966;2022-09-09T09:31:11;21.50;99.90
6106;DHT22;3083;51.508;7.966;2022-09-09T09:33:45;21.50;99.90
6106;DHT22;3083;51.508;7.966;2022-09-09T09:36:14;21.60;99.90
6106;DHT22;3083;51.508;7.966;2022-09-09T09:38:52;21.80;99.90
6106;DHT22;3083;51.508;7.966;2022-09-09T09:41:32;22.20;99.90
6106;DHT22;3083;51.508;7.966;2022-09-09T09:44:01;22.20;99.90
6106;DHT22;3083;51.508;7.966;2022-09-09T09:46:29;22.50;99.90
6106;DHT22;3083;51.508;7.966;2022-09-09T09:48:59;22.70;99.90
6106;DHT22;3083;51.508;7.966;2022-09-09T09:51:28;22.80;99.90
6106;DHT22;3083;51.508;7.966;2022-09-09T09:54:08;22.80;99.90
6106;DHT22;3083;51.508;7.966;2022-09-09T09:56:36;22.60;99.90
6106;DHT22;3083;51.508;7.966;2022-09-09T09:59:04;22.60;99.90
6106;DHT22;3083;51.508;7.966;2022-09-09T10:01:32;22.80;99.90
6106;DHT22;3083;51.508;7.966;2022-09-09T10:04:02;23.00;99.90
6106;DHT22;3083;51.508;7.966;2022-09-09T10:06:31;23.00;99.90
6106;DHT22;3083;51.508;7.966;2022-09-09T10:08:59;23.00;99.90
6106;DHT22;3083;51.508;7.966;2022-09-09T10:11:35;22.70;99.90
6106;DHT22;3083;51.508;7.966;2022-09-09T10:14:14;22.60;99.90
6106;DHT22;3083;51.508;7.966;2022-09-09T10:16:54;22.70;99.90
6106;DHT22;3083;51.508;7.966;2022-09-09T10:19:30;22.40;99.90
6106;DHT22;3083;51.508;7.966;2022-09-09T10:22:04;22.20;99.90
6106;DHT22;3083;51.508;7.966;2022-09-09T10:25:02;21.90;99.90
6106;DHT22;3083;51.508;7.966;2022-09-09T10:27:40;21.50;99.90
6106;DHT22;3083;51.508;7.966;2022-09-09T10:30:14;21.30;99.90
6106;DHT22;3083;51.508;7.966;2022-09-09T10:32:48;21.20;99.90
6106;DHT22;3083;51.508;7.966;2022-09-09T10:35:27;21.20;99.90
6106;DHT22;3083;51.508;7.966;2022-09-09T10:38:12;21.30;99.90
6106;DHT22;3083;51.508;7.966;2022-09-09T10:40:46;21.40;99.90
6106;DHT22;3083;51.508;7.966;2022-09-09T10:43:25;21.60;99.90
6106;DHT22;3083;51.508;7.966;2022-09-09T10:46:02;22.00;99.90
6106;DHT22;3083;51.508;7.966;2022-09-09T10:48:41;22.50;99.90
6106;DHT22;3083;51.508;7.966;2022-09-09T10:51:21;22.80;99.90
6106;DHT22;3083;51.508;7.966;2022-09-09T10:54:01;23.20;99.90
6106;DHT22;3083;51.508;7.966;2022-09-09T10:56:32;23.10;99.90
6106;DHT22;3083;51.508;7.966;2022-09-09T10:59:04;23.20;99.90
6106;DHT22;3083;51.508;7.966;2022-09-09T11:01:36;23.30;99.90
6106;DHT22;3083;51.508;7.966;2022-09-09T11:04:10;23.30;99.90
6106;DHT22;3083;51.508;7.966;2022-09-09T11:06:45;23.50;99.90
6106;DHT22;3083;51.508;7.966;2022-09-09T11:09:16;23.60;99.90
6106;DHT22;3083;51.508;7.966;2022-09-09T11:11:47;23.70;99.90
6106;DHT22;3083;51.508;7.966;2022-09-09T11:14:21;23.80;99.90
6106;DHT22;3083;51.508;7.966;2022-09-09T11:16:53;24.00;99.90
6106;DHT22;3083;51.508;7.966;2022-09-09T11:19:28;24.10;99.90
6106;DHT22;3083;51.508;7.966;2022-09-09T11:21:59;24.20;99.90
6106;DHT22;3083;51.508;7.966;2022-09-09T11:24:31;24.30;99.90
6106;DHT22;3083;51.508;7.966;2022-09-09T11:27:02;24.30;99.90
6106;DHT22;3083;51.508;7.966;2022-09-09T11:30:01;24.30;99.90
6106;DHT22;3083;51.508;7.966;2022-09-09T11:32:46;24.20;99.90
6106;DHT22;3083;51.508;7.966;2022-09-09T11:35:33;23.90;99.90
6106;DHT22;3083;51.508;7.966;2022-09-09T11:38:19;23.70;99.90
6106;DHT22;3083;51.508;7.966;2022-09-09T11:40:55;23.30;99.90
6106;DHT22;3083;51.508;7.966;2022-09-09T11:43:28;23.00;99.90
6106;DHT22;3083;51.508;7.966;2022-09-09T11:45:58;22.60;99.90
6106;DHT22;3083;51.508;7.966;2022-09-09T11:48:32;22.20;99.90
6106;DHT22;3083;51.508;7.966;2022-09-09T11:51:05;21.90;99.90
6106;DHT22;3083;51.508;7.966;2022-09-09T11:53:33;21.60;99.90
6106;DHT22;3083;51.508;7.966;2022-09-09T11:56:11;21.60;99.90
6106;DHT22;3083;51.508;7.966;2022-09-09T11:58:42;21.70;99.90
6106;DHT22;3083;51.508;7.966;2022-09-09T12:01:27;22.00;99.90
6106;DHT22;3083;51.508;7.966;2022-09-09T12:06:56;22.80;99.90
6106;DHT22;3083;51.508;7.966;2022-09-09T12:09:32;23.20;99.90
6106;DHT22;3083;51.508;7.966;2022-09-09T12:12:23;23.30;99.90
6106;DHT22;3083;51.508;7.966;2022-09-09T12:14:59;23.50;99.90
6106;DHT22;3083;51.508;7.966;2022-09-09T12:17:27;23.60;99.90
6106;DHT22;3083;51.508;7.966;2022-09-09T12:20:04;23.50;99.90
6106;DHT22;3083;51.508;7.966;2022-09-09T12:22:44;23.30;99.90
6106;DHT22;3083;51.508;7.966;2022-09-09T12:25:21;23.40;99.90
6106;DHT22;3083;51.508;7.966;2022-09-09T12:28:02;23.50;99.90
6106;DHT22;3083;51.508;7.966;2022-09-09T12:30:35;23.50;99.90
6106;DHT22;3083;51.508;7.966;2022-09-09T12:33:06;23.60;99.90
6106;DHT22;3083;51.508;7.966;2022-09-09T12:35:35;23.70;99.90
6106;DHT22;3083;51.508;7.966;2022-09-09T12:38:06;23.90;99.90
6106;DHT22;3083;51.508;7.966;2022-09-09T12:40:37;24.10;99.90
6106;DHT22;3083;51.508;7.966;2022-09-09T12:43:17;24.20;99.90
6106;DHT22;3083;51.508;7.966;2022-09-09T12:45:47;24.10;99.90
6106;DHT22;3083;51.508;7.966;2022-09-09T12:48:17;24.20;99.90
6106;DHT22;3083;51.508;7.966;2022-09-09T12:50:47;24.30;99.90
6106;DHT22;3083;51.508;7.966;2022-09-09T12:53:22;24.20;99.90
6106;DHT22;3083;51.508;7.966;2022-09-09T12:55:54;24.00;99.90
6106;DHT22;3083;51.508;7.966;2022-09-09T12:58:23;24.10;99.90
6106;DHT22;3083;51.508;7.966;2022-09-09T13:00:51;24.10;99.90
6106;DHT22;3083;51.508;7.966;2022-09-09T13:03:22;24.10;99.90
6106;DHT22;3083;51.508;7.966;2022-09-09T13:05:49;24.00;99.90
6106;DHT22;3083;51.508;7.966;2022-09-09T13:08:18;23.70;99.90
6106;DHT22;3083;51.508;7.966;2022-09-09T13:10:48;23.60;99.90
6106;DHT22;3083;51.508;7.966;2022-09-09T13:13:21;23.70;99.90
6106;DHT22;3083;51.508;7.966;2022-09-09T13:15:50;23.70;99.90
6106;DHT22;3083;51.508;7.966;2022-09-09T13:18:21;23.70;99.90
6106;DHT22;3083;51.508;7.966;2022-09-09T13:20:49;23.80;99.90
6106;DHT22;3083;51.508;7.966;2022-09-09T13:23:19;23.90;99.90
6106;DHT22;3083;51.508;7.966;2022-09-09T13:25:54;23.80;99.90
6106;DHT22;3083;51.508;7.966;2022-09-09T13:28:23;23.70;99.90
6106;DHT22;3083;51.508;7.966;2022-09-09T13:30:58;23.40;99.90
6106;DHT22;3083;51.508;7.966;2022-09-09T13:33:33;23.30;99.90
6106;DHT22;3083;51.508;7.966;2022-09-09T13:36:02;23.10;99.90
6106;DHT22;3083;51.508;7.966;2022-09-09T13:38:33;23.10;99.90
6106;DHT22;3083;51.508;7.966;2022-09-09T13:41:04;23.00;99.90
6106;DHT22;3083;51.508;7.966;2022-09-09T13:43:36;23.10;99.90
6106;DHT22;3083;51.508;7.966;2022-09-09T13:46:05;23.10;99.90
6106;DHT22;3083;51.508;7.966;2022-09-09T13:48:32;23.00;99.90
6106;DHT22;3083;51.508;7.966;2022-09-09T13:51:02;22.90;99.90
6106;DHT22;3083;51.508;7.966;2022-09-09T13:53:32;22.90;99.90
6106;DHT22;3083;51.508;7.966;2022-09-09T13:55:59;22.90;99.90
6106;DHT22;3083;51.508;7.966;2022-09-09T13:58:27;22.80;99.90
6106;DHT22;3083;51.508;7.966;2022-09-09T14:00:54;22.80;99.90
6106;DHT22;3083;51.508;7.966;2022-09-09T14:03:23;22.70;99.90
6106;DHT22;3083;51.508;7.966;2022-09-09T14:05:49;22.80;99.90
6106;DHT22;3083;51.508;7.966;2022-09-09T14:08:22;22.70;99.90
6106;DHT22;3083;51.508;7.966;2022-09-09T14:10:52;22.70;99.90
6106;DHT22;3083;51.508;7.966;2022-09-09T14:13:21;22.70;99.90
6106;DHT22;3083;51.508;7.966;2022-09-09T14:15:48;22.70;99.90
6106;DHT22;3083;51.508;7.966;2022-09-09T14:18:16;22.60;99.90
6106;DHT22;3083;51.508;7.966;2022-09-09T14:20:44;22.50;99.90
6106;DHT22;3083;51.508;7.966;2022-09-09T14:23:11;22.50;99.90
6106;DHT22;3083;51.508;7.966;2022-09-09T14:25:40;22.40;99.90
6106;DHT22;3083;51.508;7.966;2022-09-09T14:28:11;22.40;99.90
6106;DHT22;3083;51.508;7.966;2022-09-09T14:30:39;22.40;99.90
6106;DHT22;3083;51.508;7.966;2022-09-09T14:33:07;22.50;99.90
6106;DHT22;3083;51.508;7.966;2022-09-09T14:35:34;22.50;99.90
6106;DHT22;3083;51.508;7.966;2022-09-09T14:38:02;22.60;99.90
6106;DHT22;3083;51.508;7.966;2022-09-09T14:40:29;22.60;99.90
6106;DHT22;3083;51.508;7.966;2022-09-09T14:42:57;22.60;99.90
6106;DHT22;3083;51.508;7.966;2022-09-09T14:45:26;22.50;99.90
6106;DHT22;3083;51.508;7.966;2022-09-09T14:47:52;22.30;99.90
6106;DHT22;3083;51.508;7.966;2022-09-09T14:50:20;22.20;99.90
6106;DHT22;3083;51.508;7.966;2022-09-09T14:52:47;22.10;99.90
6106;DHT22;3083;51.508;7.966;2022-09-09T14:55:14;22.00;99.90
6106;DHT22;3083;51.508;7.966;2022-09-09T14:57:41;21.90;99.90
6106;DHT22;3083;51.508;7.966;2022-09-09T15:00:10;21.90;99.90
6106;DHT22;3083;51.508;7.966;2022-09-09T15:02:38;21.80;99.90
6106;DHT22;3083;51.508;7.966;2022-09-09T15:05:06;21.80;99.90
6106;DHT22;3083;51.508;7.966;2022-09-09T15:07:33;21.70;99.90
6106;DHT22;3083;51.508;7.966;2022-09-09T15:10:01;21.70;99.90
6106;DHT22;3083;51.508;7.966;2022-09-09T15:12:28;21.60;99.90
6106;DHT22;3083;51.508;7.966;2022-09-09T15:14:55;21.50;99.90
6106;DHT22;3083;51.508;7.966;2022-09-09T15:17:23;21.30;99.90
6106;DHT22;3083;51.508;7.966;2022-09-09T15:19:54;21.20;99.90
6106;DHT22;3083;51.508;7.966;2022-09-09T15:22:21;21.00;99.90
6106;DHT22;3083;51.508;7.966;2022-09-09T15:24:49;20.90;99.90
6106;DHT22;3083;51.508;7.966;2022-09-09T15:27:16;20.70;99.90
6106;DHT22;3083;51.508;7.966;2022-09-09T15:29:44;20.60;99.90
6106;DHT22;3083;51.508;7.966;2022-09-09T15:32:12;20.30;99.90
6106;DHT22;3083;51.508;7.966;2022-09-09T15:34:39;20.00;99.90
6106;DHT22;3083;51.508;7.966;2022-09-09T15:37:09;19.70;99.90
6106;DHT22;3083;51.508;7.966;2022-09-09T15:39:39;19.50;99.90
6106;DHT22;3083;51.508;7.966;2022-09-09T15:42:06;19.30;99.90
6106;DHT22;3083;51.508;7.966;2022-09-09T15:44:39;19.30;99.90
6106;DHT22;3083;51.508;7.966;2022-09-09T15:47:07;19.20;99.90
6106;DHT22;3083;51.508;7.966;2022-09-09T15:49:37;19.20;99.90
6106;DHT22;3083;51.508;7.966;2022-09-09T15:52:04;19.20;99.90
6106;DHT22;3083;51.508;7.966;2022-09-09T15:54:34;19.10;99.90
6106;DHT22;3083;51.508;7.966;2022-09-09T15:57:03;19.10;99.90
6106;DHT22;3083;51.508;7.966;2022-09-09T15:59:31;19.10;99.90
6106;DHT22;3083;51.508;7.966;2022-09-09T16:01:59;19.00;99.90
6106;DHT22;3083;51.508;7.966;2022-09-09T16:04:27;18.90;99.90
6106;DHT22;3083;51.508;7.966;2022-09-09T16:06:56;18.80;99.90
6106;DHT22;3083;51.508;7.966;2022-09-09T16:09:24;18.70;99.90
6106;DHT22;3083;51.508;7.966;2022-09-09T16:11:55;18.60;99.90
6106;DHT22;3083;51.508;7.966;2022-09-09T16:14:24;18.40;99.90
6106;DHT22;3083;51.508;7.966;2022-09-09T16:16:52;18.40;99.90
6106;DHT22;3083;51.508;7.966;2022-09-09T16:19:19;18.30;99.90
6106;DHT22;3083;51.508;7.966;2022-09-09T16:21:48;18.20;99.90
6106;DHT22;3083;51.508;7.966;2022-09-09T16:24:17;18.20;99.90
6106;DHT22;3083;51.508;7.966;2022-09-09T16:26:46;18.20;99.90